sensor_id;sensor_type;location;lat;lon;timestamp;P1;durP1;ratioP1;P2;durP2;ratioP2
6121;SDS011;3091;51.506;7.672;2023-02-15T00:01:45;20.87;;;19.97;;
6121;SDS011;3091;51.506;7.672;2023-02-15T00:04:15;22.60;;;21.40;;
6121;SDS011;3091;51.506;7.672;2023-02-15T00:06:41;19.83;;;18.90;;
6121;SDS011;3091;51.506;7.672;2023-02-15T00:09:08;20.73;;;19.27;;
6121;SDS011;3091;51.506;7.672;2023-02-15T00:11:34;20.63;;;19.47;;
6121;SDS011;3091;51.506;7.672;2023-02-15T00:14:28;20.90;;;18.50;;
6121;SDS011;3091;51.506;7.672;2023-02-15T00:16:53;18.97;;;18.27;;
6121;SDS011;3091;51.506;7.672;2023-02-15T00:19:20;19.10;;;18.40;;
6121;SDS011;3091;51.506;7.672;2023-02-15T00:21:46;18.73;;;18.03;;
6121;SDS011;3091;51.506;7.672;2023-02-15T00:24:14;19.30;;;18.60;;
6121;SDS011;3091;51.506;7.672;2023-02-15T00:26:40;20.00;;;19.20;;
6121;SDS011;3091;51.506;7.672;2023-02-15T00:29:07;20.37;;;19.57;;
6121;SDS011;3091;51.506;7.672;2023-02-15T00:31:33;19.80;;;19.00;;
6121;SDS011;3091;51.506;7.672;2023-02-15T00:34:06;21.43;;;20.63;;
6121;SDS011;3091;51.506;7.672;2023-02-15T00:36:33;21.00;;;20.10;;
6121;SDS011;3091;51.506;7.672;2023-02-15T00:39:02;19.17;;;18.43;;
6121;SDS011;3091;51.506;7.672;2023-02-15T00:41:29;28.80;;;21.17;;
6121;SDS011;3091;51.506;7.672;2023-02-15T00:43:55;16.40;;;15.80;;
6121;SDS011;3091;51.506;7.672;2023-02-15T00:46:21;17.43;;;16.70;;
6121;SDS011;3091;51.506;7.672;2023-02-15T00:48:47;18.73;;;17.90;;
6121;SDS011;3091;51.506;7.672;2023-02-15T00:51:13;16.83;;;16.13;;
6121;SDS011;3091;51.506;7.672;2023-02-15T00:53:42;19.30;;;18.50;;
6121;SDS011;3091;51.506;7.672;2023-02-15T00:56:09;17.43;;;16.73;;
6121;SDS011;3091;51.506;7.672;2023-02-15T00:58:35;17.33;;;16.63;;
6121;SDS011;3091;51.506;7.672;2023-02-15T01:01:05;20.63;;;19.63;;
6121;SDS011;3091;51.506;7.672;2023-02-15T01:03:31;20.47;;;19.47;;
6121;SDS011;3091;51.506;7.672;2023-02-15T01:05:57;17.73;;;17.03;;
6121;SDS011;3091;51.506;7.672;2023-02-15T01:08:31;19.60;;;18.40;;
6121;SDS011;3091;51.506;7.672;2023-02-15T01:10:59;19.17;;;18.43;;
6121;SDS011;3091;51.506;7.672;2023-02-15T01:13:28;16.43;;;15.83;;
6121;SDS011;3091;51.506;7.672;2023-02-15T01:15:55;18.47;;;17.77;;
6121;SDS011;3091;51.506;7.672;2023-02-15T01:18:21;17.73;;;16.93;;
6121;SDS011;3091;51.506;7.672;2023-02-15T01:20:50;20.67;;;18.00;;
6121;SDS011;3091;51.506;7.672;2023-02-15T01:23:18;19.10;;;18.20;;
6121;SDS011;3091;51.506;7.672;2023-02-15T01:25:44;18.77;;;17.97;;
6121;SDS011;3091;51.506;7.672;2023-02-15T01:28:10;20.30;;;19.40;;
6121;SDS011;3091;51.506;7.672;2023-02-15T01:30:37;19.40;;;18.50;;
6121;SDS011;3091;51.506;7.672;2023-02-15T01:33:03;17.47;;;16.77;;
6121;SDS011;3091;51.506;7.672;2023-02-15T01:35:29;19.70;;;18.50;;
6121;SDS011;3091;51.506;7.672;2023-02-15T01:37:55;17.23;;;16.53;;
6121;SDS011;3091;51.506;7.672;2023-02-15T01:40:22;17.63;;;16.93;;
6121;SDS011;3091;51.506;7.672;2023-02-15T01:42:51;18.87;;;17.97;;
6121;SDS011;3091;51.506;7.672;2023-02-15T01:50:38;17.90;;;17.00;;
6121;SDS011;3091;51.506;7.672;2023-02-15T01:55:47;16.60;;;15.90;;
6121;SDS011;3091;51.506;7.672;2023-02-15T01:58:16;19.60;;;18.60;;
6121;SDS011;3091;51.506;7.672;2023-02-15T02:00:43;16.40;;;15.83;;
6121;SDS011;3091;51.506;7.672;2023-02-15T02:03:09;17.33;;;16.73;;
6121;SDS011;3091;51.506;7.672;2023-02-15T02:05:35;16.40;;;15.70;;
6121;SDS011;3091;51.506;7.672;2023-02-15T02:08:01;16.50;;;15.90;;
6121;SDS011;3091;51.506;7.672;2023-02-15T02:10:28;18.40;;;17.57;;
6121;SDS011;3091;51.506;7.672;2023-02-15T02:12:57;19.60;;;18.60;;
6121;SDS011;3091;51.506;7.672;2023-02-15T02:15:30;17.13;;;16.23;;
6121;SDS011;3091;51.506;7.672;2023-02-15T02:25:40;18.67;;;17.97;;
6121;SDS011;3091;51.506;7.672;2023-02-15T02:31:33;19.67;;;18.63;;
6121;SDS011;3091;51.506;7.672;2023-02-15T02:33:57;19.13;;;18.43;;
6121;SDS011;3091;51.506;7.672;2023-02-15T02:39:12;19.80;;;19.00;;
6121;SDS011;3091;51.506;7.672;2023-02-15T02:46:33;18.30;;;17.60;;
6121;SDS011;3091;51.506;7.672;2023-02-15T02:49:01;21.73;;;20.40;;
6121;SDS011;3091;51.506;7.672;2023-02-15T02:51:27;21.47;;;20.47;;
6121;SDS011;3091;51.506;7.672;2023-02-15T02:53:54;18.00;;;17.20;;
6121;SDS011;3091;51.506;7.672;2023-02-15T02:56:29;19.93;;;19.03;;
6121;SDS011;3091;51.506;7.672;2023-02-15T03:01:27;18.73;;;18.00;;
6121;SDS011;3091;51.506;7.672;2023-02-15T03:03:58;20.63;;;19.53;;
6121;SDS011;3091;51.506;7.672;2023-02-15T03:07:27;18.30;;;17.60;;
6121;SDS011;3091;51.506;7.672;2023-02-15T03:09:25;18.60;;;17.90;;
6121;SDS011;3091;51.506;7.672;2023-02-15T03:12:06;20.20;;;19.30;;
6121;SDS011;3091;51.506;7.672;2023-02-15T03:14:33;18.57;;;17.87;;
6121;SDS011;3091;51.506;7.672;2023-02-15T03:16:59;20.30;;;19.50;;
6121;SDS011;3091;51.506;7.672;2023-02-15T03:19:27;20.27;;;19.30;;
6121;SDS011;3091;51.506;7.672;2023-02-15T03:21:56;20.23;;;19.23;;
6121;SDS011;3091;51.506;7.672;2023-02-15T03:24:30;19.47;;;18.57;;
6121;SDS011;3091;51.506;7.672;2023-02-15T03:26:58;18.50;;;17.80;;
6121;SDS011;3091;51.506;7.672;2023-02-15T03:29:26;18.77;;;18.07;;
6121;SDS011;3091;51.506;7.672;2023-02-15T03:31:54;18.67;;;17.97;;
6121;SDS011;3091;51.506;7.672;2023-02-15T03:34:22;20.40;;;19.50;;
6121;SDS011;3091;51.506;7.672;2023-02-15T03:44:29;17.70;;;17.00;;
6121;SDS011;3091;51.506;7.672;2023-02-15T03:46:58;18.33;;;17.63;;
6121;SDS011;3091;51.506;7.672;2023-02-15T03:52:10;20.00;;;18.90;;
6121;SDS011;3091;51.506;7.672;2023-02-15T03:54:37;23.97;;;22.30;;
6121;SDS011;3091;51.506;7.672;2023-02-15T04:00:04;20.23;;;18.97;;
6121;SDS011;3091;51.506;7.672;2023-02-15T04:03:06;22.43;;;21.23;;
6121;SDS011;3091;51.506;7.672;2023-02-15T04:05:32;23.80;;;22.33;;
6121;SDS011;3091;51.506;7.672;2023-02-15T04:07:58;21.13;;;19.93;;
6121;SDS011;3091;51.506;7.672;2023-02-15T04:10:24;21.07;;;20.03;;
6121;SDS011;3091;51.506;7.672;2023-02-15T04:13:12;21.60;;;20.40;;
6121;SDS011;3091;51.506;7.672;2023-02-15T04:15:38;22.00;;;20.63;;
6121;SDS011;3091;51.506;7.672;2023-02-15T04:21:18;22.07;;;20.73;;
6121;SDS011;3091;51.506;7.672;2023-02-15T04:24:03;19.47;;;18.57;;
6121;SDS011;3091;51.506;7.672;2023-02-15T04:26:48;19.43;;;18.53;;
6121;SDS011;3091;51.506;7.672;2023-02-15T04:29:17;21.70;;;20.70;;
6121;SDS011;3091;51.506;7.672;2023-02-15T04:31:43;20.13;;;19.23;;
6121;SDS011;3091;51.506;7.672;2023-02-15T04:34:09;20.83;;;19.70;;
6121;SDS011;3091;51.506;7.672;2023-02-15T04:36:36;21.63;;;20.37;;
6121;SDS011;3091;51.506;7.672;2023-02-15T04:39:02;24.20;;;22.70;;
6121;SDS011;3091;51.506;7.672;2023-02-15T04:41:28;25.13;;;23.10;;
6121;SDS011;3091;51.506;7.672;2023-02-15T04:43:54;19.50;;;18.50;;
6121;SDS011;3091;51.506;7.672;2023-02-15T04:46:21;21.70;;;20.30;;
6121;SDS011;3091;51.506;7.672;2023-02-15T04:48:47;22.77;;;21.20;;
6121;SDS011;3091;51.506;7.672;2023-02-15T04:51:13;20.00;;;19.10;;
6121;SDS011;3091;51.506;7.672;2023-02-15T04:53:39;19.90;;;18.93;;
6121;SDS011;3091;51.506;7.672;2023-02-15T04:56:05;22.83;;;21.50;;
6121;SDS011;3091;51.506;7.672;2023-02-15T04:58:31;21.70;;;20.10;;
6121;SDS011;3091;51.506;7.672;2023-02-15T05:00:57;22.10;;;20.83;;
6121;SDS011;3091;51.506;7.672;2023-02-15T05:03:24;23.17;;;21.77;;
6121;SDS011;3091;51.506;7.672;2023-02-15T05:05:50;29.77;;;20.67;;
6121;SDS011;3091;51.506;7.672;2023-02-15T05:08:16;22.53;;;21.33;;
6121;SDS011;3091;51.506;7.672;2023-02-15T05:10:42;20.20;;;19.30;;
6121;SDS011;3091;51.506;7.672;2023-02-15T05:13:08;21.57;;;20.37;;
6121;SDS011;3091;51.506;7.672;2023-02-15T05:15:34;22.43;;;21.30;;
6121;SDS011;3091;51.506;7.672;2023-02-15T05:18:00;19.33;;;18.33;;
6121;SDS011;3091;51.506;7.672;2023-02-15T05:20:27;20.47;;;19.27;;
6121;SDS011;3091;51.506;7.672;2023-02-15T05:22:53;22.57;;;21.30;;
6121;SDS011;3091;51.506;7.672;2023-02-15T05:25:19;20.40;;;19.50;;
6121;SDS011;3091;51.506;7.672;2023-02-15T05:28:04;21.13;;;20.23;;
6121;SDS011;3091;51.506;7.672;2023-02-15T05:31:19;21.80;;;20.70;;
6121;SDS011;3091;51.506;7.672;2023-02-15T05:33:38;20.30;;;19.40;;
6121;SDS011;3091;51.506;7.672;2023-02-15T05:36:04;20.37;;;19.37;;
6121;SDS011;3091;51.506;7.672;2023-02-15T05:38:30;21.17;;;19.97;;
6121;SDS011;3091;51.506;7.672;2023-02-15T05:40:57;19.73;;;18.93;;
6121;SDS011;3091;51.506;7.672;2023-02-15T05:43:25;20.20;;;19.30;;
6121;SDS011;3091;51.506;7.672;2023-02-15T05:45:52;21.10;;;20.10;;
6121;SDS011;3091;51.506;7.672;2023-02-15T05:48:19;22.50;;;21.30;;
6121;SDS011;3091;51.506;7.672;2023-02-15T05:50:45;20.83;;;19.73;;
6121;SDS011;3091;51.506;7.672;2023-02-15T05:53:11;21.30;;;20.30;;
6121;SDS011;3091;51.506;7.672;2023-02-15T05:55:38;22.20;;;20.90;;
6121;SDS011;3091;51.506;7.672;2023-02-15T05:58:04;28.10;;;25.80;;
6121;SDS011;3091;51.506;7.672;2023-02-15T06:00:30;22.83;;;21.60;;
6121;SDS011;3091;51.506;7.672;2023-02-15T06:02:56;23.57;;;22.17;;
6121;SDS011;3091;51.506;7.672;2023-02-15T06:05:22;22.57;;;21.27;;
6121;SDS011;3091;51.506;7.672;2023-02-15T06:07:48;24.37;;;22.40;;
6121;SDS011;3091;51.506;7.672;2023-02-15T06:10:14;21.37;;;20.17;;
6121;SDS011;3091;51.506;7.672;2023-02-15T06:12:40;20.57;;;19.57;;
6121;SDS011;3091;51.506;7.672;2023-02-15T06:15:07;23.87;;;22.13;;
6121;SDS011;3091;51.506;7.672;2023-02-15T06:17:33;23.03;;;21.43;;
6121;SDS011;3091;51.506;7.672;2023-02-15T06:19:59;23.00;;;21.80;;
6121;SDS011;3091;51.506;7.672;2023-02-15T06:22:25;20.47;;;19.57;;
6121;SDS011;3091;51.506;7.672;2023-02-15T06:24:51;20.67;;;19.77;;
6121;SDS011;3091;51.506;7.672;2023-02-15T06:27:17;22.87;;;21.67;;
6121;SDS011;3091;51.506;7.672;2023-02-15T06:29:43;21.97;;;20.93;;
6121;SDS011;3091;51.506;7.672;2023-02-15T06:32:11;21.53;;;20.63;;
6121;SDS011;3091;51.506;7.672;2023-02-15T06:34:37;23.10;;;21.90;;
6121;SDS011;3091;51.506;7.672;2023-02-15T06:37:03;23.90;;;22.50;;
6121;SDS011;3091;51.506;7.672;2023-02-15T06:39:29;24.17;;;22.67;;
6121;SDS011;3091;51.506;7.672;2023-02-15T06:41:55;25.87;;;24.27;;
6121;SDS011;3091;51.506;7.672;2023-02-15T06:44:23;23.47;;;21.97;;
6121;SDS011;3091;51.506;7.672;2023-02-15T06:46:49;22.17;;;20.77;;
6121;SDS011;3091;51.506;7.672;2023-02-15T06:49:17;23.93;;;22.33;;
6121;SDS011;3091;51.506;7.672;2023-02-15T06:51:43;22.80;;;21.40;;
6121;SDS011;3091;51.506;7.672;2023-02-15T06:54:09;23.63;;;22.33;;
6121;SDS011;3091;51.506;7.672;2023-02-15T06:56:35;21.73;;;20.20;;
6121;SDS011;3091;51.506;7.672;2023-02-15T06:59:01;20.10;;;19.20;;
6121;SDS011;3091;51.506;7.672;2023-02-15T07:01:27;20.70;;;19.80;;
6121;SDS011;3091;51.506;7.672;2023-02-15T07:03:55;18.60;;;17.90;;
6121;SDS011;3091;51.506;7.672;2023-02-15T07:06:21;22.47;;;21.17;;
6121;SDS011;3091;51.506;7.672;2023-02-15T07:08:47;23.23;;;21.67;;
6121;SDS011;3091;51.506;7.672;2023-02-15T07:11:14;21.77;;;20.47;;
6121;SDS011;3091;51.506;7.672;2023-02-15T07:13:58;21.40;;;20.17;;
6121;SDS011;3091;51.506;7.672;2023-02-15T07:16:24;19.07;;;17.77;;
6121;SDS011;3091;51.506;7.672;2023-02-15T07:18:50;21.63;;;20.33;;
6121;SDS011;3091;51.506;7.672;2023-02-15T07:21:16;17.60;;;16.50;;
6121;SDS011;3091;51.506;7.672;2023-02-15T07:23:42;20.50;;;19.20;;
6121;SDS011;3091;51.506;7.672;2023-02-15T07:26:09;22.57;;;16.90;;
6121;SDS011;3091;51.506;7.672;2023-02-15T07:28:35;19.90;;;18.70;;
6121;SDS011;3091;51.506;7.672;2023-02-15T07:31:04;14.07;;;13.57;;
6121;SDS011;3091;51.506;7.672;2023-02-15T07:33:31;15.93;;;15.13;;
6121;SDS011;3091;51.506;7.672;2023-02-15T07:35:57;14.67;;;14.00;;
6121;SDS011;3091;51.506;7.672;2023-02-15T07:38:25;15.93;;;14.97;;
6121;SDS011;3091;51.506;7.672;2023-02-15T07:40:51;14.93;;;14.33;;
6121;SDS011;3091;51.506;7.672;2023-02-15T07:43:17;11.30;;;11.00;;
6121;SDS011;3091;51.506;7.672;2023-02-15T07:45:43;15.20;;;14.37;;
6121;SDS011;3091;51.506;7.672;2023-02-15T07:48:09;15.73;;;14.70;;
6121;SDS011;3091;51.506;7.672;2023-02-15T07:50:35;16.30;;;15.03;;
6121;SDS011;3091;51.506;7.672;2023-02-15T07:53:02;16.97;;;15.90;;
6121;SDS011;3091;51.506;7.672;2023-02-15T07:55:28;12.13;;;11.63;;
6121;SDS011;3091;51.506;7.672;2023-02-15T07:57:54;15.90;;;15.10;;
6121;SDS011;3091;51.506;7.672;2023-02-15T08:00:21;15.70;;;14.80;;
6121;SDS011;3091;51.506;7.672;2023-02-15T08:02:53;15.20;;;14.23;;
6121;SDS011;3091;51.506;7.672;2023-02-15T08:05:38;16.33;;;15.43;;
6121;SDS011;3091;51.506;7.672;2023-02-15T08:08:05;13.37;;;12.67;;
6121;SDS011;3091;51.506;7.672;2023-02-15T08:10:32;12.50;;;12.10;;
6121;SDS011;3091;51.506;7.672;2023-02-15T08:13:16;13.80;;;13.20;;
6121;SDS011;3091;51.506;7.672;2023-02-15T08:15:49;15.53;;;14.63;;
6121;SDS011;3091;51.506;7.672;2023-02-15T08:18:15;14.27;;;13.20;;
6121;SDS011;3091;51.506;7.672;2023-02-15T08:20:41;14.80;;;13.80;;
6121;SDS011;3091;51.506;7.672;2023-02-15T08:23:07;15.60;;;14.60;;
6121;SDS011;3091;51.506;7.672;2023-02-15T08:25:33;12.67;;;12.17;;
6121;SDS011;3091;51.506;7.672;2023-02-15T08:28:07;15.83;;;14.30;;
6121;SDS011;3091;51.506;7.672;2023-02-15T08:30:33;13.73;;;13.03;;
6121;SDS011;3091;51.506;7.672;2023-02-15T08:32:59;15.20;;;14.47;;
6121;SDS011;3091;51.506;7.672;2023-02-15T08:35:25;15.57;;;14.67;;
6121;SDS011;3091;51.506;7.672;2023-02-15T08:37:51;17.57;;;16.33;;
6121;SDS011;3091;51.506;7.672;2023-02-15T08:40:17;14.27;;;13.60;;
6121;SDS011;3091;51.506;7.672;2023-02-15T08:42:43;18.80;;;17.10;;
6121;SDS011;3091;51.506;7.672;2023-02-15T08:45:09;17.23;;;15.83;;
6121;SDS011;3091;51.506;7.672;2023-02-15T08:47:35;15.40;;;14.70;;
6121;SDS011;3091;51.506;7.672;2023-02-15T08:50:01;18.13;;;17.00;;
6121;SDS011;3091;51.506;7.672;2023-02-15T08:52:27;12.07;;;11.67;;
6121;SDS011;3091;51.506;7.672;2023-02-15T08:54:53;14.73;;;13.93;;
6121;SDS011;3091;51.506;7.672;2023-02-15T08:57:20;13.53;;;13.00;;
6121;SDS011;3091;51.506;7.672;2023-02-15T08:59:46;15.70;;;14.90;;
6121;SDS011;3091;51.506;7.672;2023-02-15T09:02:12;13.67;;;13.07;;
6121;SDS011;3091;51.506;7.672;2023-02-15T09:04:38;17.03;;;16.03;;
6121;SDS011;3091;51.506;7.672;2023-02-15T09:07:04;15.60;;;14.60;;
6121;SDS011;3091;51.506;7.672;2023-02-15T09:09:30;13.57;;;13.00;;
6121;SDS011;3091;51.506;7.672;2023-02-15T09:11:56;18.83;;;17.60;;
6121;SDS011;3091;51.506;7.672;2023-02-15T09:14:23;13.60;;;13.07;;
6121;SDS011;3091;51.506;7.672;2023-02-15T09:16:51;13.90;;;13.30;;
6121;SDS011;3091;51.506;7.672;2023-02-15T09:19:18;20.67;;;18.80;;
6121;SDS011;3091;51.506;7.672;2023-02-15T09:21:44;15.27;;;14.23;;
6121;SDS011;3091;51.506;7.672;2023-02-15T09:24:11;16.60;;;15.60;;
6121;SDS011;3091;51.506;7.672;2023-02-15T09:26:38;15.33;;;14.60;;
6121;SDS011;3091;51.506;7.672;2023-02-15T09:29:08;14.07;;;13.30;;
6121;SDS011;3091;51.506;7.672;2023-02-15T09:31:38;18.23;;;16.90;;
6121;SDS011;3091;51.506;7.672;2023-02-15T09:34:08;15.97;;;15.23;;
6121;SDS011;3091;51.506;7.672;2023-02-15T09:36:35;14.53;;;13.80;;
6121;SDS011;3091;51.506;7.672;2023-02-15T09:39:12;15.17;;;14.47;;
6121;SDS011;3091;51.506;7.672;2023-02-15T09:49:30;14.13;;;13.50;;
6121;SDS011;3091;51.506;7.672;2023-02-15T09:54:46;12.90;;;12.30;;
6121;SDS011;3091;51.506;7.672;2023-02-15T10:00:08;16.53;;;15.40;;
6121;SDS011;3091;51.506;7.672;2023-02-15T10:02:56;16.73;;;15.60;;
6121;SDS011;3091;51.506;7.672;2023-02-15T10:05:37;15.83;;;14.93;;
6121;SDS011;3091;51.506;7.672;2023-02-15T10:10:57;12.70;;;12.20;;
6121;SDS011;3091;51.506;7.672;2023-02-15T10:14:02;16.50;;;15.50;;
6121;SDS011;3091;51.506;7.672;2023-02-15T10:16:39;14.17;;;13.23;;
6121;SDS011;3091;51.506;7.672;2023-02-15T10:24:17;15.17;;;14.47;;
6121;SDS011;3091;51.506;7.672;2023-02-15T10:26:46;14.07;;;13.47;;
6121;SDS011;3091;51.506;7.672;2023-02-15T10:42:05;14.00;;;13.20;;
6121;SDS011;3091;51.506;7.672;2023-02-15T10:44:44;15.70;;;15.10;;
6121;SDS011;3091;51.506;7.672;2023-02-15T10:49:58;14.13;;;13.53;;
6121;SDS011;3091;51.506;7.672;2023-02-15T10:59:10;15.60;;;14.60;;
6121;SDS011;3091;51.506;7.672;2023-02-15T11:03:51;13.30;;;12.90;;
6121;SDS011;3091;51.506;7.672;2023-02-15T11:06:21;12.47;;;12.07;;
6121;SDS011;3091;51.506;7.672;2023-02-15T11:08:53;12.67;;;12.27;;
6121;SDS011;3091;51.506;7.672;2023-02-15T11:11:24;14.43;;;13.83;;
6121;SDS011;3091;51.506;7.672;2023-02-15T11:14:02;13.70;;;13.20;;
6121;SDS011;3091;51.506;7.672;2023-02-15T11:16:34;13.83;;;13.33;;
6121;SDS011;3091;51.506;7.672;2023-02-15T11:19:06;14.00;;;13.40;;
6121;SDS011;3091;51.506;7.672;2023-02-15T11:21:39;14.30;;;13.80;;
6121;SDS011;3091;51.506;7.672;2023-02-15T11:24:12;12.90;;;12.50;;
6121;SDS011;3091;51.506;7.672;2023-02-15T11:26:46;13.40;;;12.90;;
6121;SDS011;3091;51.506;7.672;2023-02-15T11:31:57;14.00;;;13.40;;
6121;SDS011;3091;51.506;7.672;2023-02-15T11:36:54;14.17;;;13.47;;
6121;SDS011;3091;51.506;7.672;2023-02-15T11:39:21;15.93;;;15.23;;
6121;SDS011;3091;51.506;7.672;2023-02-15T11:41:49;14.40;;;13.60;;
6121;SDS011;3091;51.506;7.672;2023-02-15T11:46:45;13.60;;;13.10;;
6121;SDS011;3091;51.506;7.672;2023-02-15T11:49:20;13.07;;;12.60;;
6121;SDS011;3091;51.506;7.672;2023-02-15T11:51:48;11.70;;;11.30;;
6121;SDS011;3091;51.506;7.672;2023-02-15T11:54:16;13.80;;;13.30;;
6121;SDS011;3091;51.506;7.672;2023-02-15T11:56:43;13.20;;;12.60;;
6121;SDS011;3091;51.506;7.672;2023-02-15T11:59:10;12.37;;;11.97;;
6121;SDS011;3091;51.506;7.672;2023-02-15T12:01:42;13.77;;;13.27;;
6121;SDS011;3091;51.506;7.672;2023-02-15T12:06:41;15.33;;;14.73;;
6121;SDS011;3091;51.506;7.672;2023-02-15T12:09:18;13.03;;;12.53;;
6121;SDS011;3091;51.506;7.672;2023-02-15T12:11:46;15.30;;;14.60;;
6121;SDS011;3091;51.506;7.672;2023-02-15T12:14:12;12.57;;;12.10;;
6121;SDS011;3091;51.506;7.672;2023-02-15T12:21:49;13.73;;;13.23;;
6121;SDS011;3091;51.506;7.672;2023-02-15T12:24:18;12.70;;;12.30;;
6121;SDS011;3091;51.506;7.672;2023-02-15T12:26:45;13.97;;;13.27;;
6121;SDS011;3091;51.506;7.672;2023-02-15T12:29:21;14.13;;;13.63;;
6121;SDS011;3091;51.506;7.672;2023-02-15T12:31:50;14.60;;;14.00;;
6121;SDS011;3091;51.506;7.672;2023-02-15T12:36:53;11.50;;;11.10;;
6121;SDS011;3091;51.506;7.672;2023-02-15T12:39:27;12.37;;;11.87;;
6121;SDS011;3091;51.506;7.672;2023-02-15T12:47:45;15.17;;;14.27;;
6121;SDS011;3091;51.506;7.672;2023-02-15T12:49:40;13.10;;;12.70;;
6121;SDS011;3091;51.506;7.672;2023-02-15T12:54:45;13.07;;;12.67;;
6121;SDS011;3091;51.506;7.672;2023-02-15T12:59:54;13.93;;;13.43;;
6121;SDS011;3091;51.506;7.672;2023-02-15T13:02:23;14.70;;;14.10;;
6121;SDS011;3091;51.506;7.672;2023-02-15T13:04:49;13.37;;;12.87;;
6121;SDS011;3091;51.506;7.672;2023-02-15T13:07:16;14.70;;;14.03;;
6121;SDS011;3091;51.506;7.672;2023-02-15T13:09:42;14.10;;;13.60;;
6121;SDS011;3091;51.506;7.672;2023-02-15T13:12:15;15.73;;;15.13;;
6121;SDS011;3091;51.506;7.672;2023-02-15T13:14:45;13.33;;;12.83;;
6121;SDS011;3091;51.506;7.672;2023-02-15T13:17:11;16.53;;;15.63;;
6121;SDS011;3091;51.506;7.672;2023-02-15T13:22:13;15.40;;;14.90;;
6121;SDS011;3091;51.506;7.672;2023-02-15T13:24:42;14.13;;;13.33;;
6121;SDS011;3091;51.506;7.672;2023-02-15T13:27:15;14.60;;;13.57;;
6121;SDS011;3091;51.506;7.672;2023-02-15T13:29:52;12.33;;;11.93;;
6121;SDS011;3091;51.506;7.672;2023-02-15T13:32:30;12.50;;;12.10;;
6121;SDS011;3091;51.506;7.672;2023-02-15T13:34:58;11.60;;;11.20;;
6121;SDS011;3091;51.506;7.672;2023-02-15T13:42:19;13.33;;;12.83;;
6121;SDS011;3091;51.506;7.672;2023-02-15T13:52:58;15.03;;;14.43;;
6121;SDS011;3091;51.506;7.672;2023-02-15T14:08:36;13.43;;;12.83;;
6121;SDS011;3091;51.506;7.672;2023-02-15T14:16:20;12.87;;;12.37;;
6121;SDS011;3091;51.506;7.672;2023-02-15T14:18:58;14.87;;;14.07;;
6121;SDS011;3091;51.506;7.672;2023-02-15T14:21:35;15.50;;;14.90;;
6121;SDS011;3091;51.506;7.672;2023-02-15T14:26:47;12.93;;;12.43;;
6121;SDS011;3091;51.506;7.672;2023-02-15T14:32:03;12.47;;;12.07;;
6121;SDS011;3091;51.506;7.672;2023-02-15T14:37:09;12.10;;;11.70;;
6121;SDS011;3091;51.506;7.672;2023-02-15T14:39:41;13.93;;;13.43;;
6121;SDS011;3091;51.506;7.672;2023-02-15T14:44:57;13.50;;;12.37;;
6121;SDS011;3091;51.506;7.672;2023-02-15T14:47:37;11.93;;;11.53;;
6121;SDS011;3091;51.506;7.672;2023-02-15T14:55:35;12.63;;;12.23;;
6121;SDS011;3091;51.506;7.672;2023-02-15T14:58:01;12.67;;;12.17;;
6121;SDS011;3091;51.506;7.672;2023-02-15T15:00:37;12.80;;;12.30;;
6121;SDS011;3091;51.506;7.672;2023-02-15T15:03:10;13.40;;;12.90;;
6121;SDS011;3091;51.506;7.672;2023-02-15T15:05:46;12.80;;;12.40;;
6121;SDS011;3091;51.506;7.672;2023-02-15T15:11:51;14.07;;;13.57;;
6121;SDS011;3091;51.506;7.672;2023-02-15T15:13:59;12.90;;;12.50;;
6121;SDS011;3091;51.506;7.672;2023-02-15T15:16:28;14.70;;;14.00;;
6121;SDS011;3091;51.506;7.672;2023-02-15T15:18:54;12.70;;;12.30;;
6121;SDS011;3091;51.506;7.672;2023-02-15T15:24:06;12.90;;;12.50;;
6121;SDS011;3091;51.506;7.672;2023-02-15T15:26:32;13.43;;;12.83;;
6121;SDS011;3091;51.506;7.672;2023-02-15T15:29:02;13.17;;;12.67;;
6121;SDS011;3091;51.506;7.672;2023-02-15T15:31:45;13.67;;;13.00;;
6121;SDS011;3091;51.506;7.672;2023-02-15T15:34:18;13.90;;;13.40;;
6121;SDS011;3091;51.506;7.672;2023-02-15T15:47:44;12.77;;;12.37;;
6121;SDS011;3091;51.506;7.672;2023-02-15T15:50:24;12.70;;;12.30;;
6121;SDS011;3091;51.506;7.672;2023-02-15T15:52:58;13.33;;;12.83;;
6121;SDS011;3091;51.506;7.672;2023-02-15T15:55:25;12.30;;;11.90;;
6121;SDS011;3091;51.506;7.672;2023-02-15T15:57:55;12.20;;;11.80;;
6121;SDS011;3091;51.506;7.672;2023-02-15T16:02:52;12.00;;;11.60;;
6121;SDS011;3091;51.506;7.672;2023-02-15T16:05:22;12.20;;;11.80;;
6121;SDS011;3091;51.506;7.672;2023-02-15T16:07:49;14.10;;;13.60;;
6121;SDS011;3091;51.506;7.672;2023-02-15T16:10:25;11.90;;;11.50;;
6121;SDS011;3091;51.506;7.672;2023-02-15T16:12:52;12.10;;;11.70;;
6121;SDS011;3091;51.506;7.672;2023-02-15T16:15:19;13.43;;;12.93;;
6121;SDS011;3091;51.506;7.672;2023-02-15T16:17:49;12.57;;;12.17;;
6121;SDS011;3091;51.506;7.672;2023-02-15T16:20:26;11.63;;;11.23;;
6121;SDS011;3091;51.506;7.672;2023-02-15T16:23:02;11.23;;;10.83;;
6121;SDS011;3091;51.506;7.672;2023-02-15T16:28:15;11.40;;;11.00;;
6121;SDS011;3091;51.506;7.672;2023-02-15T16:30:43;11.30;;;10.90;;
6121;SDS011;3091;51.506;7.672;2023-02-15T16:33:11;11.20;;;10.80;;
6121;SDS011;3091;51.506;7.672;2023-02-15T16:35:38;12.73;;;12.23;;
6121;SDS011;3091;51.506;7.672;2023-02-15T16:38:05;12.10;;;11.70;;
6121;SDS011;3091;51.506;7.672;2023-02-15T16:43:01;14.67;;;14.17;;
6121;SDS011;3091;51.506;7.672;2023-02-15T16:45:31;12.13;;;11.73;;
6121;SDS011;3091;51.506;7.672;2023-02-15T16:47:58;14.20;;;12.67;;
6121;SDS011;3091;51.506;7.672;2023-02-15T16:50:28;12.70;;;12.20;;
6121;SDS011;3091;51.506;7.672;2023-02-15T16:52:56;12.87;;;12.40;;
6121;SDS011;3091;51.506;7.672;2023-02-15T16:55:24;13.23;;;12.70;;
6121;SDS011;3091;51.506;7.672;2023-02-15T16:57:50;12.97;;;12.57;;
6121;SDS011;3091;51.506;7.672;2023-02-15T17:00:24;11.77;;;11.37;;
6121;SDS011;3091;51.506;7.672;2023-02-15T17:05:20;12.57;;;12.17;;
6121;SDS011;3091;51.506;7.672;2023-02-15T17:13:04;12.30;;;11.80;;
6121;SDS011;3091;51.506;7.672;2023-02-15T17:15:36;15.17;;;14.30;;
6121;SDS011;3091;51.506;7.672;2023-02-15T17:18:06;12.20;;;11.80;;
6121;SDS011;3091;51.506;7.672;2023-02-15T17:20:35;12.50;;;12.00;;
6121;SDS011;3091;51.506;7.672;2023-02-15T17:23:03;11.63;;;11.23;;
6121;SDS011;3091;51.506;7.672;2023-02-15T17:25:37;12.10;;;11.70;;
6121;SDS011;3091;51.506;7.672;2023-02-15T17:28:03;13.73;;;13.23;;
6121;SDS011;3091;51.506;7.672;2023-02-15T17:30:31;13.00;;;12.50;;
6121;SDS011;3091;51.506;7.672;2023-02-15T17:32:59;13.60;;;13.00;;
6121;SDS011;3091;51.506;7.672;2023-02-15T17:35:26;12.17;;;11.77;;
6121;SDS011;3091;51.506;7.672;2023-02-15T17:38:00;12.20;;;11.80;;
6121;SDS011;3091;51.506;7.672;2023-02-15T17:40:28;14.37;;;13.67;;
6121;SDS011;3091;51.506;7.672;2023-02-15T17:42:54;13.97;;;13.47;;
6121;SDS011;3091;51.506;7.672;2023-02-15T17:45:20;13.00;;;12.50;;
6121;SDS011;3091;51.506;7.672;2023-02-15T17:47:47;12.97;;;12.47;;
6121;SDS011;3091;51.506;7.672;2023-02-15T17:50:21;12.60;;;12.10;;
6121;SDS011;3091;51.506;7.672;2023-02-15T17:52:47;12.27;;;11.87;;
6121;SDS011;3091;51.506;7.672;2023-02-15T17:55:16;12.13;;;11.73;;
6121;SDS011;3091;51.506;7.672;2023-02-15T17:58:07;12.33;;;11.83;;
6121;SDS011;3091;51.506;7.672;2023-02-15T18:00:34;12.30;;;11.90;;
6121;SDS011;3091;51.506;7.672;2023-02-15T18:03:20;13.17;;;12.60;;
6121;SDS011;3091;51.506;7.672;2023-02-15T18:06:05;13.07;;;12.57;;
6121;SDS011;3091;51.506;7.672;2023-02-15T18:08:50;15.63;;;14.83;;
6121;SDS011;3091;51.506;7.672;2023-02-15T18:11:34;14.57;;;14.00;;
6121;SDS011;3091;51.506;7.672;2023-02-15T18:14:04;13.10;;;12.63;;
6121;SDS011;3091;51.506;7.672;2023-02-15T18:16:32;13.10;;;12.60;;
6121;SDS011;3091;51.506;7.672;2023-02-15T18:18:59;12.10;;;11.70;;
6121;SDS011;3091;51.506;7.672;2023-02-15T18:21:25;12.60;;;12.20;;
6121;SDS011;3091;51.506;7.672;2023-02-15T18:23:51;14.10;;;13.30;;